Time;durP1;ratioP1;P1;durP2;ratioP2;P2;SDS_P1;SDS_P2;PMS_P1;PMS_P2;Temp;Humidity;BMP_temperature;BMP_pressure;BME280_temperature;BME280_humidity;BME280_pressure;Samples;Min_cycle;Max_cycle;Signal;HPM_P1;HPM_P2
2023/06/30 00:01:25;;;;;;;6.40;2.65;;;;;;;12.17;100.00;101420.47;4960432;28;20046;-74
2023/06/30 00:04:12;;;;;;;4.57;2.38;;;;;;;12.15;100.00;101422.34;4962327;28;20049;-74
2023/06/30 00:06:58;;;;;;;4.30;2.40;;;;;;;12.12;100.00;101422.44;4961159;28;20039;-74
2023/06/30 00:09:44;;;;;;;4.90;2.45;;;;;;;12.06;100.00;101427.13;4960643;28;20030;-73
2023/06/30 00:12:30;;;;;;;7.15;2.38;;;;;;;12.03;100.00;101432.53;4961688;28;20054;-74
2023/06/30 00:15:16;;;;;;;4.43;2.50;;;;;;;12.00;100.00;101427.34;4962782;28;20129;-73
2023/06/30 00:18:04;;;;;;;4.68;2.42;;;;;;;11.96;100.00;101420.44;4962406;28;20424;-73
2023/06/30 00:20:50;;;;;;;3.35;2.03;;;;;;;11.92;100.00;101421.47;4965621;28;20141;-73
2023/06/30 00:23:36;;;;;;;5.10;2.40;;;;;;;11.90;100.00;101420.69;4961420;28;20053;-73
2023/06/30 00:26:21;;;;;;;3.40;2.53;;;;;;;11.88;100.00;101419.88;4950025;28;20039;-73
2023/06/30 00:29:07;;;;;;;4.13;2.28;;;;;;;11.86;100.00;101421.72;4959587;28;20074;-73
2023/06/30 00:31:53;;;;;;;4.10;2.30;;;;;;;11.84;100.00;101420.94;4960443;28;20050;-73
2023/06/30 00:34:40;;;;;;;4.93;2.50;;;;;;;11.79;100.00;101414.03;4963153;28;20069;-74
2023/06/30 00:37:26;;;;;;;3.70;2.33;;;;;;;11.78;100.00;101417.59;4960650;28;20034;-73
2023/06/30 00:40:14;;;;;;;3.78;2.15;;;;;;;11.74;100.00;101415.16;4961742;28;20535;-73
2023/06/30 00:43:00;;;;;;;5.25;2.55;;;;;;;11.73;100.00;101418.72;4961879;28;20425;-73
2023/06/30 00:45:47;;;;;;;6.22;2.53;;;;;;;11.70;100.00;101427.66;4961388;28;20112;-74
2023/06/30 00:48:33;;;;;;;4.32;2.53;;;;;;;11.67;100.00;101425.16;4959546;28;20682;-73
2023/06/30 00:51:19;;;;;;;8.23;2.70;;;;;;;11.65;100.00;101411.06;4957519;28;20520;-73
2023/06/30 00:54:04;;;;;;;2.25;2.05;;;;;;;11.63;100.00;101412.94;4960650;28;20050;-73
2023/06/30 00:56:50;;;;;;;3.75;2.38;;;;;;;11.61;100.00;101404.19;4960071;28;20279;-73
2023/06/30 00:59:36;;;;;;;3.83;2.05;;;;;;;11.60;100.00;101410.41;4962228;28;20445;-73
2023/06/30 01:02:22;;;;;;;5.00;2.20;;;;;;;11.58;100.00;101405.16;4957984;28;20446;-73
2023/06/30 01:05:11;;;;;;;5.45;2.38;;;;;;;11.56;100.00;101407.03;4960827;28;20133;-73
2023/06/30 01:08:12;;;;;;;7.47;2.25;;;;;;;11.54;100.00;101409.75;4962636;28;20125;-73
2023/06/30 01:10:58;;;;;;;5.30;2.30;;;;;;;11.53;100.00;101401.84;4963128;28;20146;-73
2023/06/30 01:13:44;;;;;;;3.03;2.20;;;;;;;11.50;100.00;101400.16;4961631;28;20042;-73
2023/06/30 01:16:32;;;;;;;4.15;2.42;;;;;;;11.48;100.00;101399.38;4963877;28;20046;-73
2023/06/30 01:19:29;;;;;;;6.00;2.25;;;;;;;11.47;100.00;101402.09;4961433;28;20473;-74
2023/06/30 01:22:26;;;;;;;6.80;2.80;;;;;;;11.47;100.00;101400.31;4965339;28;20957;-73
2023/06/30 01:25:19;;;;;;;5.97;2.30;;;;;;;11.44;100.00;101389.81;4950138;28;20461;-73
2023/06/30 01:28:04;;;;;;;4.50;2.53;;;;;;;11.44;100.00;101391.63;4975850;28;20329;-73
2023/06/30 01:30:50;;;;;;;4.22;2.50;;;;;;;11.41;100.00;101397.91;4957898;28;20489;-73
2023/06/30 01:33:37;;;;;;;3.13;2.50;;;;;;;11.39;100.00;101394.47;4959219;28;21067;-73
2023/06/30 01:36:23;;;;;;;4.82;2.63;;;;;;;11.38;100.00;101387.41;4960287;28;20039;-73
2023/06/30 01:39:08;;;;;;;5.65;2.85;;;;;;;11.34;100.00;101386.66;4959249;28;20050;-73
2023/06/30 01:41:54;;;;;;;4.82;3.03;;;;;;;11.34;100.00;101396.41;4960870;28;20042;-74
2023/06/30 01:44:41;;;;;;;5.30;2.83;;;;;;;11.32;100.00;101398.28;4956093;28;20064;-74
2023/06/30 01:47:27;;;;;;;7.25;2.35;;;;;;;11.30;100.00;101384.19;4959312;28;20054;-73
2023/06/30 01:50:13;;;;;;;3.30;2.67;;;;;;;11.27;100.00;101386.06;4960574;28;20031;-73
2023/06/30 01:52:59;;;;;;;6.55;2.70;;;;;;;11.26;100.00;101394.94;4972955;28;20965;-73
2023/06/30 01:55:47;;;;;;;6.95;2.60;;;;;;;11.26;100.00;101381.69;4957047;28;20141;-74
2023/06/30 01:58:33;;;;;;;4.72;2.70;;;;;;;11.25;100.00;101390.56;4961813;28;20035;-72
2023/06/30 02:01:18;;;;;;;4.43;2.85;;;;;;;11.24;100.00;101387.97;4963384;28;20066;-73
2023/06/30 02:04:04;;;;;;;5.90;3.05;;;;;;;11.24;100.00;101383.50;4958824;28;20045;-74
2023/06/30 02:06:50;;;;;;;3.75;2.72;;;;;;;11.22;100.00;101384.53;4959905;28;20043;-73
2023/06/30 02:09:36;;;;;;;5.30;2.65;;;;;;;11.23;100.00;101375.66;4960556;28;20157;-73
2023/06/30 02:12:21;;;;;;;4.63;3.03;;;;;;;11.22;100.00;101379.22;4961493;28;20035;-73
2023/06/30 02:15:08;;;;;;;9.18;2.88;;;;;;;11.20;100.00;101381.94;4960386;28;20409;-73
2023/06/30 02:17:55;;;;;;;4.25;2.65;;;;;;;11.18;100.00;101370.53;4960738;28;20065;-73
2023/06/30 02:20:40;;;;;;;6.15;2.70;;;;;;;11.18;100.00;101381.13;4960674;28;20046;-73
2023/06/30 02:23:28;;;;;;;4.28;2.50;;;;;;;11.18;100.00;101381.13;4959860;28;20046;-72
2023/06/30 02:26:15;;;;;;;4.65;2.92;;;;;;;11.15;100.00;101370.63;4958749;28;20545;-73
2023/06/30 02:29:00;;;;;;;4.55;2.70;;;;;;;11.17;100.00;101375.88;4973339;28;20510;-73
2023/06/30 02:31:46;;;;;;;5.70;2.88;;;;;;;11.13;100.00;101370.69;4962545;28;20042;-73
2023/06/30 02:34:32;;;;;;;5.28;2.70;;;;;;;11.13;100.00;101377.78;4957110;28;20042;-73
2023/06/30 02:37:18;;;;;;;5.47;2.70;;;;;;;11.11;100.00;101383.16;4959650;28;20035;-73
2023/06/30 02:40:04;;;;;;;4.88;2.83;;;;;;;11.09;100.00;101374.41;4971217;28;20038;-73
2023/06/30 02:42:50;;;;;;;6.18;3.08;;;;;;;11.08;100.00;101382.41;4960510;28;21023;-73
2023/06/30 02:45:36;;;;;;;5.80;2.97;;;;;;;11.07;100.00;101378.03;4959781;28;20057;-74
2023/06/30 02:48:24;;;;;;;6.75;3.03;;;;;;;11.06;100.00;101368.38;4958225;28;20596;-73
2023/06/30 02:51:09;;;;;;;4.60;2.80;;;;;;;11.05;100.00;101371.94;4948312;28;20046;-73
2023/06/30 02:53:55;;;;;;;4.10;3.03;;;;;;;11.05;100.00;101370.13;4962827;28;20079;-73
2023/06/30 02:56:41;;;;;;;6.93;3.08;;;;;;;11.04;100.00;101373.72;4959698;28;20456;-73
2023/06/30 02:59:27;;;;;;;4.80;2.90;;;;;;;11.05;100.00;101369.28;4963268;28;20042;-73
2023/06/30 03:02:12;;;;;;;4.63;2.92;;;;;;;11.03;100.00;101374.63;4964656;28;20061;-73
2023/06/30 03:04:58;;;;;;;4.15;2.95;;;;;;;11.04;100.00;101380.78;4962641;28;20042;-74
2023/06/30 03:07:44;;;;;;;5.47;2.88;;;;;;;11.03;100.00;101368.47;4964727;28;20143;-73
2023/06/30 03:10:29;;;;;;;5.30;3.30;;;;;;;11.03;100.00;101365.81;4968692;28;20031;-74
2023/06/30 03:13:15;;;;;;;5.20;3.22;;;;;;;11.02;100.00;101361.44;4966071;28;20444;-73
2023/06/30 03:16:01;;;;;;;7.88;3.55;;;;;;;11.00;100.00;101359.72;4967420;28;20042;-73
2023/06/30 03:18:46;;;;;;;5.85;3.03;;;;;;;11.00;100.00;101366.78;4965038;28;20508;-73
2023/06/30 03:21:32;;;;;;;6.15;2.95;;;;;;;11.00;100.00;101361.50;4949398;28;20565;-73
2023/06/30 03:24:18;;;;;;;4.20;3.17;;;;;;;10.99;100.00;101365.94;4965491;28;21090;-74
2023/06/30 03:27:04;;;;;;;3.58;2.75;;;;;;;11.00;100.00;101358.84;4966959;28;20379;-74
2023/06/30 03:29:50;;;;;;;7.70;2.90;;;;;;;11.01;100.00;101363.25;4961353;28;20653;-74
2023/06/30 03:32:36;;;;;;;6.05;2.92;;;;;;;11.00;100.00;101357.06;4964310;28;20118;-74
2023/06/30 03:35:21;;;;;;;6.60;3.13;;;;;;;11.01;100.00;101360.59;4961098;28;20045;-74
2023/06/30 03:38:07;;;;;;;6.28;2.83;;;;;;;11.00;100.00;101354.44;4968449;28;20531;-74
2023/06/30 03:40:53;;;;;;;5.90;2.67;;;;;;;11.00;100.00;101357.06;4962731;28;20121;-74
2023/06/30 03:43:38;;;;;;;3.83;2.80;;;;;;;11.02;100.00;101350.84;4962441;28;20591;-74
2023/06/30 03:46:24;;;;;;;5.90;3.05;;;;;;;10.99;100.00;101351.81;4964872;28;20403;-74
2023/06/30 03:49:10;;;;;;;4.78;2.90;;;;;;;11.00;100.00;101351.78;4961026;28;20042;-73
2023/06/30 03:51:56;;;;;;;5.22;3.10;;;;;;;11.03;100.00;101355.22;4961751;28;20052;-74
2023/06/30 03:54:42;;;;;;;3.63;2.70;;;;;;;11.04;100.00;101351.63;4964518;28;20073;-74
2023/06/30 03:57:28;;;;;;;7.85;2.97;;;;;;;11.05;100.00;101354.22;4961947;28;20039;-73
2023/06/30 04:00:14;;;;;;;3.78;2.63;;;;;;;11.06;100.00;101361.25;4963674;28;20039;-74
2023/06/30 04:03:00;;;;;;;3.25;2.50;;;;;;;11.09;100.00;101365.56;4960959;28;20053;-74
2023/06/30 04:05:48;;;;;;;5.60;3.10;;;;;;;11.12;100.00;101365.47;4961812;28;20133;-73
2023/06/30 04:08:35;;;;;;;5.65;3.53;;;;;;;11.16;100.00;101360.91;4962523;28;20034;-74
2023/06/30 04:11:20;;;;;;;8.68;3.35;;;;;;;11.20;100.00;101366.03;4962044;28;20074;-73
2023/06/30 04:14:06;;;;;;;6.13;2.80;;;;;;;11.22;100.00;101366.81;4960772;28;20042;-73
2023/06/30 04:16:52;;;;;;;5.07;2.85;;;;;;;11.27;100.00;101367.50;4961548;28;20130;-73
2023/06/30 04:19:37;;;;;;;5.15;2.90;;;;;;;11.32;100.00;101367.31;4947641;28;20077;-74
2023/06/30 04:22:23;;;;;;;4.60;3.17;;;;;;;11.38;100.00;101376.78;4961566;28;20042;-74
2023/06/30 04:25:09;;;;;;;7.72;3.60;;;;;;;11.45;100.00;101374.78;4962618;28;20045;-74
2023/06/30 04:27:55;;;;;;;3.58;2.55;;;;;;;11.51;100.00;101371.88;4961332;28;20045;-75
2023/06/30 04:30:41;;;;;;;5.13;3.28;;;;;;;11.57;100.00;101370.75;4962274;28;20462;-74
2023/06/30 04:33:29;;;;;;;4.75;3.03;;;;;;;11.62;100.00;101371.44;4960057;28;20043;-74
2023/06/30 04:36:17;;;;;;;6.32;2.80;;;;;;;11.71;100.00;101375.50;4958715;28;21969;-74
2023/06/30 04:39:03;;;;;;;3.63;2.65;;;;;;;11.78;100.00;101380.47;4961636;28;20062;-74
2023/06/30 04:41:48;;;;;;;5.78;2.85;;;;;;;11.87;100.00;101384.53;4962554;28;20056;-74
2023/06/30 04:44:36;;;;;;;6.22;2.90;;;;;;;11.98;100.00;101386.72;4957991;28;20425;-74
2023/06/30 04:47:22;;;;;;;5.43;2.55;;;;;;;12.11;100.00;101378.25;4974186;28;20046;-74
2023/06/30 04:50:08;;;;;;;6.20;2.97;;;;;;;12.23;100.00;101391.00;4959785;28;20969;-74
2023/06/30 04:52:54;;;;;;;4.95;2.58;;;;;;;12.33;100.00;101387.00;4959844;28;20046;-73
2023/06/30 04:55:40;;;;;;;3.67;2.58;;;;;;;12.44;100.00;101393.66;4960383;28;20034;-74
2023/06/30 04:58:25;;;;;;;4.80;2.40;;;;;;;12.53;100.00;101390.56;4961902;28;20042;-74
2023/06/30 05:01:11;;;;;;;5.43;2.60;;;;;;;12.62;100.00;101386.63;4960052;28;20401;-74
2023/06/30 05:03:57;;;;;;;6.15;2.58;;;;;;;12.72;100.00;101381.75;4961164;28;20430;-74
2023/06/30 05:06:43;;;;;;;4.93;2.60;;;;;;;12.82;100.00;101390.19;4959275;28;22119;-74
2023/06/30 05:09:28;;;;;;;6.57;2.70;;;;;;;12.92;100.00;101377.31;4962383;28;20054;-74
2023/06/30 05:12:17;;;;;;;4.40;2.40;;;;;;;13.01;100.00;101374.22;4964189;28;20053;-74
2023/06/30 05:15:03;;;;;;;5.28;2.42;;;;;;;13.13;100.00;101376.31;4964572;28;20042;-74
2023/06/30 05:17:49;;;;;;;4.57;2.42;;;;;;;13.23;100.00;101383.84;4962243;28;20077;-74
2023/06/30 05:20:36;;;;;;;6.88;2.70;;;;;;;13.33;100.00;101382.47;4962951;28;20034;-74
2023/06/30 05:23:23;;;;;;;2.78;1.88;;;;;;;13.43;100.00;101388.19;4961753;28;20045;-75
2023/06/30 05:26:10;;;;;;;7.18;2.60;;;;;;;13.54;100.00;101385.03;4975588;28;20034;-74
2023/06/30 05:28:55;;;;;;;6.00;2.10;;;;;;;13.65;100.00;101384.50;4975553;28;20659;-74
2023/06/30 05:31:41;;;;;;;2.55;1.88;;;;;;;13.77;100.00;101383.03;4972287;28;20465;-74
2023/06/30 05:34:30;;;;;;;5.25;2.15;;;;;;;13.88;100.00;101375.34;4958871;28;20057;-74
2023/06/30 05:37:15;;;;;;;5.72;2.25;;;;;;;14.02;100.00;101382.66;4960672;28;20042;-74
2023/06/30 05:40:01;;;;;;;4.90;2.38;;;;;;;14.18;100.00;101374.72;4945973;28;20030;-74
2023/06/30 05:42:47;;;;;;;4.90;2.10;;;;;;;14.33;100.00;101373.03;4960241;28;20442;-74
2023/06/30 05:45:33;;;;;;;5.78;2.38;;;;;;;14.51;100.00;101387.19;4944323;28;21839;-74
2023/06/30 05:48:19;;;;;;;4.88;2.05;;;;;;;14.71;100.00;101387.06;4960123;28;20043;-73
2023/06/30 05:51:05;;;;;;;3.83;2.08;;;;;;;14.92;100.00;101377.03;4957326;28;20034;-74
2023/06/30 05:53:51;;;;;;;2.78;1.67;;;;;;;15.14;100.00;101383.88;4960102;28;20482;-74
2023/06/30 05:56:36;;;;;;;3.58;1.98;;;;;;;15.38;100.00;101383.41;4962571;28;20643;-73
2023/06/30 05:59:22;;;;;;;4.38;2.00;;;;;;;15.60;100.00;101386.53;4962267;28;20101;-74
2023/06/30 06:02:08;;;;;;;3.53;2.42;;;;;;;15.86;100.00;101389.50;4960090;28;20037;-74
2023/06/30 06:04:54;;;;;;;5.00;2.00;;;;;;;16.05;100.00;101399.13;4959809;28;20042;-74
2023/06/30 06:07:40;;;;;;;2.83;1.67;;;;;;;16.27;100.00;101385.34;4958844;28;20199;-74
2023/06/30 06:10:26;;;;;;;2.60;1.48;;;;;;;16.51;100.00;101386.59;4959123;28;20034;-74
2023/06/30 06:13:11;;;;;;;2.22;1.60;;;;;;;16.58;100.00;101384.38;4959312;28;20256;-74
2023/06/30 06:15:57;;;;;;;4.07;1.60;;;;;;;16.66;100.00;101384.75;4960014;28;20674;-74
2023/06/30 06:18:43;;;;;;;3.08;1.50;;;;;;;16.72;100.00;101397.72;4958357;28;20568;-75
2023/06/30 06:21:29;;;;;;;6.15;1.67;;;;;;;16.76;100.00;101391.25;4957771;28;20481;-73
2023/06/30 06:24:18;;;;;;;3.20;1.40;;;;;;;16.88;100.00;101394.13;4958843;28;20047;-74
2023/06/30 06:27:04;;;;;;;3.30;1.55;;;;;;;17.05;100.00;101395.75;4971947;28;20266;-74
2023/06/30 06:29:50;;;;;;;3.75;1.55;;;;;;;17.32;100.00;101405.63;4960278;28;20042;-74
2023/06/30 06:32:36;;;;;;;2.92;1.33;;;;;;;17.48;100.00;101403.63;4961777;28;20035;-73
2023/06/30 06:35:22;;;;;;;5.28;1.55;;;;;;;17.52;100.00;101404.28;4972807;28;20035;-73
2023/06/30 06:38:08;;;;;;;3.05;1.38;;;;;;;17.49;100.00;101404.50;4975297;28;20044;-73
2023/06/30 06:40:53;;;;;;;3.28;1.23;;;;;;;17.46;100.00;101410.91;4965111;28;20497;-73
2023/06/30 06:43:39;;;;;;;2.63;1.23;;;;;;;17.38;100.00;101408.72;4963084;28;20038;-74
2023/06/30 06:46:25;;;;;;;3.92;1.35;;;;;;;17.33;100.00;101421.53;4962616;28;20059;-74
2023/06/30 06:49:11;;;;;;;2.88;1.50;;;;;;;17.26;100.00;101412.19;4975067;28;20130;-75
2023/06/30 06:51:56;;;;;;;2.70;1.27;;;;;;;17.19;100.00;101406.41;4961359;28;20042;-74
2023/06/30 06:54:42;;;;;;;1.88;1.20;;;;;;;17.11;100.00;101406.03;4960976;28;20042;-73
2023/06/30 06:57:28;;;;;;;3.70;1.20;;;;;;;17.04;100.00;101404.69;4962880;28;20049;-74
2023/06/30 07:00:16;;;;;;;4.53;1.40;;;;;;;16.99;100.00;101407.63;4963602;28;20038;-74
2023/06/30 07:03:01;;;;;;;3.28;1.23;;;;;;;16.99;100.00;101404.13;4964090;28;20034;-73
2023/06/30 07:05:47;;;;;;;3.03;1.17;;;;;;;16.99;100.00;101406.78;4957915;28;20038;-74
2023/06/30 07:08:36;;;;;;;4.57;1.23;;;;;;;17.00;100.00;101411.19;4965649;28;20109;-74
2023/06/30 07:11:22;;;;;;;2.13;1.13;;;;;;;17.06;100.00;101411.66;4964148;28;20094;-73
2023/06/30 07:14:08;;;;;;;1.90;1.20;;;;;;;17.19;100.00;101408.22;4966137;28;20042;-74
2023/06/30 07:16:53;;;;;;;2.25;1.20;;;;;;;17.37;100.00;101401.66;4964749;28;20030;-73
2023/06/30 07:19:39;;;;;;;3.10;1.20;;;;;;;17.60;100.00;101401.94;4966541;28;20078;-73
2023/06/30 07:22:25;;;;;;;3.33;1.30;;;;;;;17.88;100.00;101396.56;4964660;28;20151;-73
2023/06/30 07:25:11;;;;;;;1.67;1.20;;;;;;;18.11;100.00;101400.41;4969861;28;20056;-76
2023/06/30 07:28:00;;;;;;;1.25;0.98;;;;;;;18.27;100.00;101408.25;4965872;28;20035;-75
2023/06/30 07:30:46;;;;;;;3.42;1.10;;;;;;;18.49;100.00;101400.50;4975556;28;20030;-74
2023/06/30 07:33:32;;;;;;;2.20;1.20;;;;;;;18.69;100.00;101396.41;4960608;28;20732;-74
2023/06/30 07:36:17;;;;;;;2.10;1.00;;;;;;;18.79;100.00;101405.50;4962253;28;20050;-75
2023/06/30 07:39:08;;;;;;;2.97;1.38;;;;;;;18.83;100.00;101398.09;4961290;28;20176;-76
2023/06/30 07:41:53;;;;;;;4.38;0.93;;;;;;;18.93;100.00;101400.97;4961274;28;20686;-74
2023/06/30 07:44:40;;;;;;;1.50;0.90;;;;;;;19.09;100.00;101400.75;4963792;28;20441;-76
2023/06/30 07:47:25;;;;;;;1.15;0.90;;;;;;;19.22;100.00;101392.66;4935855;28;20046;-75
2023/06/30 07:50:13;;;;;;;1.70;1.02;;;;;;;19.33;100.00;101383.81;4976090;28;20034;-75
2023/06/30 07:52:58;;;;;;;3.22;1.00;;;;;;;19.48;100.00;101387.16;4957504;28;20076;-74
2023/06/30 07:55:44;;;;;;;2.80;0.80;;;;;;;19.48;100.00;101382.66;4962282;28;20521;-75
2023/06/30 07:58:31;;;;;;;2.15;0.93;;;;;;;19.57;100.00;101391.00;4960176;28;20043;-74
2023/06/30 08:01:16;;;;;;;4.45;1.38;;;;;;;19.51;98.72;101392.31;4965933;28;20050;-75
2023/06/30 08:04:02;;;;;;;3.65;1.20;;;;;;;19.56;98.97;101387.47;4959047;28;20662;-74
2023/06/30 08:06:49;;;;;;;1.25;1.00;;;;;;;19.66;97.40;101388.47;4960228;28;20038;-75
2023/06/30 08:09:35;;;;;;;3.60;0.90;;;;;;;19.77;94.98;101393.03;4961283;28;20116;-81
2023/06/30 08:12:23;;;;;;;1.58;0.93;;;;;;;19.79;96.09;101385.69;4959489;28;20501;-82
2023/06/30 08:15:09;;;;;;;2.58;0.80;;;;;;;19.94;95.04;101390.91;4959887;28;20042;-81
2023/06/30 08:17:55;;;;;;;3.50;1.08;;;;;;;20.10;93.35;101379.81;4963873;28;20057;-80
2023/06/30 08:20:41;;;;;;;1.08;0.73;;;;;;;20.21;93.62;101387.91;4967051;28;20031;-81
2023/06/30 08:23:29;;;;;;;3.22;0.90;;;;;;;20.35;94.26;101383.28;4949930;28;20655;-80
2023/06/30 08:26:15;;;;;;;3.08;0.95;;;;;;;20.48;90.85;101389.41;4964276;28;20042;-83
2023/06/30 08:29:01;;;;;;;1.92;1.13;;;;;;;20.57;91.84;101387.84;4965278;28;20042;-82
2023/06/30 08:31:47;;;;;;;1.75;0.93;;;;;;;20.67;88.04;101382.56;4964280;28;20046;-81
2023/06/30 08:34:32;;;;;;;3.40;0.80;;;;;;;20.72;86.06;101380.38;4963657;28;20050;-81
2023/06/30 08:37:18;;;;;;;1.75;1.10;;;;;;;20.66;86.96;101380.88;4960681;28;20509;-80
2023/06/30 08:40:05;;;;;;;0.80;0.80;;;;;;;20.69;86.15;101383.28;4963623;28;20044;-80
2023/06/30 08:42:52;;;;;;;2.88;1.23;;;;;;;20.81;87.14;101376.06;4958145;28;20110;-82
2023/06/30 08:45:44;;;;;;;2.80;0.90;;;;;;;20.86;84.36;101357.75;4963071;28;20069;-83
2023/06/30 08:48:31;;;;;;;1.88;0.90;;;;;;;20.89;86.00;101362.91;4965945;28;20046;-81
2023/06/30 08:51:17;;;;;;;2.50;1.10;;;;;;;20.93;85.72;101359.94;4952177;28;20068;-80
2023/06/30 08:54:04;;;;;;;1.67;0.93;;;;;;;21.05;86.05;101363.47;4960652;28;20034;-80
2023/06/30 08:56:50;;;;;;;2.65;0.88;;;;;;;21.14;87.21;101368.09;4961595;28;20030;-79
2023/06/30 08:59:35;;;;;;;2.42;1.20;;;;;;;21.17;83.66;101357.94;4962118;28;20043;-81
2023/06/30 09:02:22;;;;;;;1.17;1.08;;;;;;;21.22;84.77;101360.25;4962141;28;20046;-78
2023/06/30 09:05:08;;;;;;;2.95;1.10;;;;;;;21.34;85.46;101354.84;4963184;28;20042;-79
2023/06/30 09:07:58;;;;;;;2.17;1.30;;;;;;;21.51;83.79;101359.63;4976888;28;20034;-78
2023/06/30 09:10:46;;;;;;;1.25;1.02;;;;;;;21.76;85.71;101351.34;4961054;28;20042;-79
2023/06/30 09:13:33;;;;;;;1.77;1.05;;;;;;;22.00;86.45;101348.38;4963686;28;20034;-85
2023/06/30 09:16:19;;;;;;;1.95;1.00;;;;;;;22.06;83.03;101358.63;4958598;28;20420;-77
2023/06/30 09:19:05;;;;;;;2.35;1.20;;;;;;;21.74;81.44;101359.59;4961228;28;20046;-79
2023/06/30 09:22:03;;;;;;;3.20;1.30;;;;;;;21.51;78.91;101359.63;4946866;28;20071;-81
2023/06/30 09:24:49;;;;;;;1.67;1.00;;;;;;;21.36;84.21;101358.25;4963814;28;20054;-82
2023/06/30 09:27:35;;;;;;;1.50;1.00;;;;;;;21.44;84.53;101350.38;4963398;28;20038;-81
2023/06/30 09:30:47;;;;;;;2.03;1.10;;;;;;;21.59;77.34;101345.53;4946564;28;20092;-81
2023/06/30 09:33:34;;;;;;;1.73;0.95;;;;;;;21.75;81.88;101338.84;4962196;28;20066;-82
2023/06/30 09:36:20;;;;;;;1.25;1.00;;;;;;;21.72;82.20;101339.13;4952854;28;20043;-82
2023/06/30 09:39:08;;;;;;;2.72;1.27;;;;;;;21.60;82.76;101346.38;4961780;28;20035;-83
2023/06/30 09:41:53;;;;;;;1.92;1.00;;;;;;;21.37;81.98;101341.09;4960013;28;21043;-80
2023/06/30 09:44:40;;;;;;;3.33;1.27;;;;;;;21.09;81.87;101338.00;4961369;28;20267;-82
2023/06/30 09:47:26;;;;;;;2.53;1.10;;;;;;;21.10;80.41;101328.94;4959615;28;20145;-81
2023/06/30 09:50:11;;;;;;;1.20;1.10;;;;;;;21.34;82.12;101327.91;4959815;28;20042;-84
2023/06/30 09:52:58;;;;;;;1.55;1.00;;;;;;;21.41;79.56;101332.63;4964400;28;20043;-86
2023/06/30 09:55:49;;;;;;;2.35;0.95;;;;;;;21.43;79.12;101327.97;4959607;28;20130;-85
2023/06/30 09:58:39;;;;;;;1.77;1.00;;;;;;;21.66;78.52;101317.09;4967297;28;20042;-84
2023/06/30 10:01:25;;;;;;;1.50;1.00;;;;;;;21.85;76.34;101318.25;4959450;28;20762;-81
2023/06/30 10:04:10;;;;;;;2.80;1.30;;;;;;;21.84;77.14;101316.50;4951303;28;20035;-81
2023/06/30 10:06:56;;;;;;;1.52;1.35;;;;;;;21.73;76.85;101317.44;4960773;28;20098;-82
2023/06/30 10:09:44;;;;;;;2.08;1.30;;;;;;;21.54;76.16;101334.28;4954113;28;20788;-83
2023/06/30 10:12:33;;;;;;;2.60;1.13;;;;;;;21.33;74.87;101331.56;4967592;28;20121;-83
2023/06/30 10:15:19;;;;;;;4.45;1.10;;;;;;;21.40;75.97;101321.97;4972551;28;20788;-84
2023/06/30 10:18:09;;;;;;;3.25;1.30;;;;;;;21.43;74.21;101322.59;4965775;28;20030;-84
2023/06/30 10:20:56;;;;;;;2.92;1.10;;;;;;;21.46;73.65;101329.53;4966956;28;20034;-84
2023/06/30 10:23:43;;;;;;;1.42;1.10;;;;;;;21.58;74.99;101324.97;4970888;28;22076;-83
2023/06/30 10:26:34;;;;;;;3.33;1.17;;;;;;;21.69;73.12;101321.38;4965781;28;20050;-84
2023/06/30 10:29:23;;;;;;;2.20;1.20;;;;;;;21.66;73.47;101340.47;4951951;28;20104;-85
2023/06/30 10:32:09;;;;;;;2.00;1.10;;;;;;;21.66;74.97;101324.28;4961024;28;20042;-78
2023/06/30 10:34:59;;;;;;;2.33;1.05;;;;;;;21.69;74.15;101321.38;4964123;28;20834;-78
2023/06/30 10:37:45;;;;;;;2.40;0.93;;;;;;;21.79;72.40;101324.16;4978528;28;20434;-82
2023/06/30 10:40:32;;;;;;;3.03;1.10;;;;;;;21.91;72.66;101322.22;4971243;28;20034;-81
2023/06/30 10:43:18;;;;;;;2.10;1.05;;;;;;;21.94;73.52;101321.94;4967053;28;20054;-82
2023/06/30 10:46:08;;;;;;;1.38;1.27;;;;;;;22.06;72.75;101315.50;4967738;28;20782;-84
2023/06/30 10:48:56;;;;;;;2.10;1.38;;;;;;;22.08;72.59;101316.25;4965627;28;20046;-79
2023/06/30 10:51:53;;;;;;;2.15;1.50;;;;;;;22.09;72.92;101315.25;4962855;28;20490;-80
2023/06/30 10:54:46;;;;;;;2.58;1.20;;;;;;;22.19;70.19;101320.69;4964918;28;22196;-79
2023/06/30 10:57:39;;;;;;;1.77;1.05;;;;;;;22.23;71.14;101313.19;4962626;28;21523;-80
2023/06/30 11:00:29;;;;;;;2.45;1.10;;;;;;;22.37;70.41;101320.91;4962795;28;20450;-79
2023/06/30 11:03:15;;;;;;;2.90;1.20;;;;;;;22.43;70.50;101310.56;4963377;28;20038;-81
2023/06/30 11:06:15;;;;;;;4.05;1.90;;;;;;;22.26;67.07;101310.19;4965549;28;22081;-79
2023/06/30 11:09:03;;;;;;;1.73;1.02;;;;;;;22.13;71.04;101304.19;4978225;28;20134;-81
2023/06/30 11:11:49;;;;;;;1.75;1.30;;;;;;;22.13;71.38;101296.09;4973381;28;20613;-80
2023/06/30 11:14:46;;;;;;;2.72;1.50;;;;;;;22.05;69.20;101304.88;4961381;28;20039;-79
2023/06/30 11:17:58;;;;;;;2.80;1.40;;;;;;;21.99;65.79;101298.16;4974293;28;20666;-80
2023/06/30 11:20:59;;;;;;;2.42;1.40;;;;;;;22.03;65.40;101290.66;4958390;28;20070;-84
2023/06/30 11:23:45;;;;;;;2.80;1.10;;;;;;;22.17;71.73;101290.28;4962285;28;21017;-84
2023/06/30 11:26:35;;;;;;;2.97;1.38;;;;;;;22.20;70.05;101289.16;4950683;28;20045;-91
2023/06/30 11:29:22;;;;;;;2.78;1.65;;;;;;;22.08;70.39;101288.41;4973319;28;20042;-82
2023/06/30 11:32:08;;;;;;;1.77;1.10;;;;;;;21.93;70.61;101290.59;4972725;28;20042;-89
2023/06/30 11:34:58;;;;;;;1.58;1.33;;;;;;;21.83;69.24;101291.41;4967470;28;20053;-94
2023/06/30 11:37:51;;;;;;;1.77;1.23;;;;;;;21.83;69.41;101277.94;4970129;28;20421;-89
2023/06/30 11:40:43;;;;;;;;;;;;;;;21.99;65.50;101271.19;4971358;28;20038;-89
2023/06/30 11:43:32;;;;;;;1.60;1.30;;;;;;;22.13;70.65;101279.91;4973290;28;19922;-85
2023/06/30 11:46:17;;;;;;;1.80;1.27;;;;;;;22.11;70.18;101280.91;4965144;28;20544;-84
2023/06/30 11:49:03;;;;;;;2.72;1.25;;;;;;;21.89;69.86;101273.00;4967872;28;20117;-93
2023/06/30 11:51:50;;;;;;;3.05;1.50;;;;;;;21.78;69.28;101268.56;4972304;28;20066;-92
2023/06/30 11:54:36;;;;;;;1.75;1.52;;;;;;;21.82;68.43;101273.53;4981873;28;20059;-90
2023/06/30 11:57:24;;;;;;;2.85;1.70;;;;;;;21.82;70.49;101265.47;4964414;28;20034;-88
2023/06/30 12:00:17;;;;;;;2.25;1.55;;;;;;;21.90;67.88;101266.63;4944030;28;20038;-90
2023/06/30 12:03:04;;;;;;;2.17;1.23;;;;;;;21.96;69.99;101268.78;4977258;28;20477;-89
2023/06/30 12:05:56;;;;;;;2.15;1.42;;;;;;;21.94;66.91;101260.84;4967771;28;20512;-92
2023/06/30 12:08:43;;;;;;;1.50;1.25;;;;;;;21.95;69.92;101259.00;4963001;28;20512;-87
2023/06/30 12:11:32;;;;;;;1.92;1.20;;;;;;;22.00;69.68;101251.34;4965492;28;20130;-86
2023/06/30 12:14:18;;;;;;;3.28;1.33;;;;;;;21.95;69.08;101253.63;4965395;28;20101;-81
2023/06/30 12:17:04;;;;;;;1.35;1.25;;;;;;;21.86;67.99;101266.03;4967511;28;20045;-84
2023/06/30 12:19:50;;;;;;;2.17;1.40;;;;;;;21.81;68.82;101252.13;4949818;28;20031;-86
2023/06/30 12:22:41;;;;;;;1.60;1.25;;;;;;;21.76;68.50;101249.81;4964936;28;20047;-85
2023/06/30 12:25:30;;;;;;;2.80;1.73;;;;;;;21.77;69.22;101250.66;4974993;28;20066;-85
2023/06/30 12:28:16;;;;;;;4.50;1.70;;;;;;;21.76;68.71;101240.88;4965980;28;20031;-90
2023/06/30 12:31:01;;;;;;;2.38;1.25;;;;;;;21.85;70.29;101248.19;4966094;28;20146;-85
2023/06/30 12:33:53;;;;;;;6.57;1.60;;;;;;;21.97;68.24;101241.69;4969029;28;20041;-86
2023/06/30 12:36:40;;;;;;;1.88;1.40;;;;;;;22.14;69.45;101235.78;4963765;28;20028;-87
2023/06/30 12:39:32;;;;;;;1.95;1.40;;;;;;;22.31;68.62;101231.59;4964306;28;20058;-85
2023/06/30 12:42:18;;;;;;;3.42;1.50;;;;;;;22.43;68.43;101233.19;4965523;28;20034;-89
2023/06/30 12:45:05;;;;;;;2.45;1.40;;;;;;;22.45;68.06;101233.06;4954893;28;20063;-87
2023/06/30 12:47:54;;;;;;;3.60;1.30;;;;;;;22.35;67.29;101228.47;4966368;28;20051;-85
2023/06/30 12:50:40;;;;;;;2.78;1.30;;;;;;;22.21;66.78;101228.84;4961650;28;20048;-82